sensor_id;sensor_type;location;lat;lon;timestamp;temperature;humidity
71304;DHT22;59091;47.446;19.148;2022-07-10T00:01:47;21.53;46.26
71304;DHT22;59091;47.446;19.148;2022-07-10T00:04:13;21.62;46.25
71304;DHT22;59091;47.446;19.148;2022-07-10T00:06:38;21.52;46.61
71304;DHT22;59091;47.446;19.148;2022-07-10T00:09:07;21.53;46.79
71304;DHT22;59091;47.446;19.148;2022-07-10T00:11:32;21.55;46.80
71304;DHT22;59091;47.446;19.148;2022-07-10T00:13:58;21.49;47.17
71304;DHT22;59091;47.446;19.148;2022-07-10T00:16:23;21.48;47.29
71304;DHT22;59091;47.446;19.148;2022-07-10T00:18:50;21.49;47.43
71304;DHT22;59091;47.446;19.148;2022-07-10T00:21:15;21.37;48.00
71304;DHT22;59091;47.446;19.148;2022-07-10T00:23:41;21.30;48.62
71304;DHT22;59091;47.446;19.148;2022-07-10T00:26:07;21.32;48.67
71304;DHT22;59091;47.446;19.148;2022-07-10T00:28:32;21.42;48.80
71304;DHT22;59091;47.446;19.148;2022-07-10T00:30:58;21.41;49.62
71304;DHT22;59091;47.446;19.148;2022-07-10T00:33:23;21.31;50.62
71304;DHT22;59091;47.446;19.148;2022-07-10T00:35:49;21.18;51.18
71304;DHT22;59091;47.446;19.148;2022-07-10T00:38:14;21.17;51.48
71304;DHT22;59091;47.446;19.148;2022-07-10T00:40:39;21.18;51.24
71304;DHT22;59091;47.446;19.148;2022-07-10T00:43:08;21.12;51.46
71304;DHT22;59091;47.446;19.148;2022-07-10T00:45:34;21.15;51.52
71304;DHT22;59091;47.446;19.148;2022-07-10T00:48:00;20.94;52.02
71304;DHT22;59091;47.446;19.148;2022-07-10T00:50:25;20.87;52.53
71304;DHT22;59091;47.446;19.148;2022-07-10T00:52:51;20.85;52.30
71304;DHT22;59091;47.446;19.148;2022-07-10T00:55:17;20.95;52.06
71304;DHT22;59091;47.446;19.148;2022-07-10T00:57:42;20.98;52.10
71304;DHT22;59091;47.446;19.148;2022-07-10T01:00:08;20.88;51.70
71304;DHT22;59091;47.446;19.148;2022-07-10T01:02:43;20.70;52.25
71304;DHT22;59091;47.446;19.148;2022-07-10T01:05:09;20.66;52.74
71304;DHT22;59091;47.446;19.148;2022-07-10T01:07:34;20.43;53.46
71304;DHT22;59091;47.446;19.148;2022-07-10T01:10:00;20.61;53.06
71304;DHT22;59091;47.446;19.148;2022-07-10T01:12:27;20.44;53.66
71304;DHT22;59091;47.446;19.148;2022-07-10T01:14:53;20.47;53.52
71304;DHT22;59091;47.446;19.148;2022-07-10T01:17:19;20.43;53.72
71304;DHT22;59091;47.446;19.148;2022-07-10T01:19:45;20.26;54.42
71304;DHT22;59091;47.446;19.148;2022-07-10T01:22:11;20.47;53.86
71304;DHT22;59091;47.446;19.148;2022-07-10T01:24:36;20.61;53.36
71304;DHT22;59091;47.446;19.148;2022-07-10T01:27:02;20.56;53.68
71304;DHT22;59091;47.446;19.148;2022-07-10T01:29:28;20.64;53.53
71304;DHT22;59091;47.446;19.148;2022-07-10T01:31:54;20.76;53.18
71304;DHT22;59091;47.446;19.148;2022-07-10T01:34:20;20.80;53.08
71304;DHT22;59091;47.446;19.148;2022-07-10T01:36:46;20.90;52.64
71304;DHT22;59091;47.446;19.148;2022-07-10T01:39:12;20.97;52.39
71304;DHT22;59091;47.446;19.148;2022-07-10T01:41:37;20.79;53.12
71304;DHT22;59091;47.446;19.148;2022-07-10T01:44:02;20.54;53.77
71304;DHT22;59091;47.446;19.148;2022-07-10T01:46:28;20.56;53.88
71304;DHT22;59091;47.446;19.148;2022-07-10T01:48:55;20.49;53.90
71304;DHT22;59091;47.446;19.148;2022-07-10T01:51:20;20.54;53.57
71304;DHT22;59091;47.446;19.148;2022-07-10T01:53:46;20.49;53.60
71304;DHT22;59091;47.446;19.148;2022-07-10T01:56:13;20.56;53.82
71304;DHT22;59091;47.446;19.148;2022-07-10T01:58:38;20.63;53.77
71304;DHT22;59091;47.446;19.148;2022-07-10T02:01:05;20.54;53.54
71304;DHT22;59091;47.446;19.148;2022-07-10T02:03:31;20.59;53.49
71304;DHT22;59091;47.446;19.148;2022-07-10T02:06:15;20.73;53.34
71304;DHT22;59091;47.446;19.148;2022-07-10T02:08:40;20.76;53.49
71304;DHT22;59091;47.446;19.148;2022-07-10T02:11:06;20.69;53.83
71304;DHT22;59091;47.446;19.148;2022-07-10T02:13:31;20.73;54.06
71304;DHT22;59091;47.446;19.148;2022-07-10T02:15:57;20.71;55.00
71304;DHT22;59091;47.446;19.148;2022-07-10T02:18:22;20.63;55.14
71304;DHT22;59091;47.446;19.148;2022-07-10T02:20:48;20.66;55.14
71304;DHT22;59091;47.446;19.148;2022-07-10T02:23:14;20.30;55.62
71304;DHT22;59091;47.446;19.148;2022-07-10T02:25:39;20.08;56.28
71304;DHT22;59091;47.446;19.148;2022-07-10T02:28:05;20.02;56.73
71304;DHT22;59091;47.446;19.148;2022-07-10T02:30:30;20.06;56.63
71304;DHT22;59091;47.446;19.148;2022-07-10T02:32:56;20.05;57.23
71304;DHT22;59091;47.446;19.148;2022-07-10T02:35:21;19.99;57.16
71304;DHT22;59091;47.446;19.148;2022-07-10T02:37:46;19.74;57.82
71304;DHT22;59091;47.446;19.148;2022-07-10T02:40:12;19.67;58.13
71304;DHT22;59091;47.446;19.148;2022-07-10T02:42:37;19.67;58.06
71304;DHT22;59091;47.446;19.148;2022-07-10T02:45:03;19.64;58.47
71304;DHT22;59091;47.446;19.148;2022-07-10T02:47:29;19.50;58.85
71304;DHT22;59091;47.446;19.148;2022-07-10T02:49:54;19.37;59.54
71304;DHT22;59091;47.446;19.148;2022-07-10T02:52:20;19.41;59.37
71304;DHT22;59091;47.446;19.148;2022-07-10T02:54:45;19.35;59.73
71304;DHT22;59091;47.446;19.148;2022-07-10T02:57:10;19.38;59.86
71304;DHT22;59091;47.446;19.148;2022-07-10T02:59:36;19.41;59.60
71304;DHT22;59091;47.446;19.148;2022-07-10T03:02:01;19.32;60.12
71304;DHT22;59091;47.446;19.148;2022-07-10T03:04:27;19.18;60.75
71304;DHT22;59091;47.446;19.148;2022-07-10T03:06:52;19.28;60.40
71304;DHT22;59091;47.446;19.148;2022-07-10T03:09:18;19.41;59.91
71304;DHT22;59091;47.446;19.148;2022-07-10T03:11:44;19.35;60.27
71304;DHT22;59091;47.446;19.148;2022-07-10T03:14:09;19.50;59.78
71304;DHT22;59091;47.446;19.148;2022-07-10T03:16:34;19.47;60.13
71304;DHT22;59091;47.446;19.148;2022-07-10T03:19:00;19.48;59.76
71304;DHT22;59091;47.446;19.148;2022-07-10T03:21:25;19.48;60.12
71304;DHT22;59091;47.446;19.148;2022-07-10T03:23:50;19.64;59.03
71304;DHT22;59091;47.446;19.148;2022-07-10T03:26:16;19.86;58.76
71304;DHT22;59091;47.446;19.148;2022-07-10T03:28:41;19.95;58.56
71304;DHT22;59091;47.446;19.148;2022-07-10T03:31:07;19.83;59.36
71304;DHT22;59091;47.446;19.148;2022-07-10T03:33:32;19.95;58.59
71304;DHT22;59091;47.446;19.148;2022-07-10T03:35:58;19.91;59.10
71304;DHT22;59091;47.446;19.148;2022-07-10T03:38:26;19.65;59.87
71304;DHT22;59091;47.446;19.148;2022-07-10T03:40:51;19.55;60.31
71304;DHT22;59091;47.446;19.148;2022-07-10T03:43:17;19.51;60.54
71304;DHT22;59091;47.446;19.148;2022-07-10T03:45:42;19.37;61.19
71304;DHT22;59091;47.446;19.148;2022-07-10T03:48:08;19.21;61.77
71304;DHT22;59091;47.446;19.148;2022-07-10T03:50:33;19.16;61.97
71304;DHT22;59091;47.446;19.148;2022-07-10T03:52:59;19.51;60.60
71304;DHT22;59091;47.446;19.148;2022-07-10T03:55:25;19.77;59.79
71304;DHT22;59091;47.446;19.148;2022-07-10T03:57:50;19.24;61.84
71304;DHT22;59091;47.446;19.148;2022-07-10T04:00:19;19.21;61.90
71304;DHT22;59091;47.446;19.148;2022-07-10T04:02:47;19.24;61.88
71304;DHT22;59091;47.446;19.148;2022-07-10T04:05:13;19.35;61.64
71304;DHT22;59091;47.446;19.148;2022-07-10T04:07:38;19.31;61.85
71304;DHT22;59091;47.446;19.148;2022-07-10T04:10:04;19.35;61.62
71304;DHT22;59091;47.446;19.148;2022-07-10T04:12:29;19.23;62.09
71304;DHT22;59091;47.446;19.148;2022-07-10T04:14:55;19.44;61.39
71304;DHT22;59091;47.446;19.148;2022-07-10T04:17:21;19.46;61.62
71304;DHT22;59091;47.446;19.148;2022-07-10T04:19:46;19.68;60.56
71304;DHT22;59091;47.446;19.148;2022-07-10T04:22:12;19.79;60.11
71304;DHT22;59091;47.446;19.148;2022-07-10T04:24:38;19.75;60.56
71304;DHT22;59091;47.446;19.148;2022-07-10T04:27:03;19.93;59.93
71304;DHT22;59091;47.446;19.148;2022-07-10T04:29:29;19.91;60.26
71304;DHT22;59091;47.446;19.148;2022-07-10T04:31:54;20.00;60.01
71304;DHT22;59091;47.446;19.148;2022-07-10T04:34:20;20.08;59.53
71304;DHT22;59091;47.446;19.148;2022-07-10T04:36:45;20.46;58.50
71304;DHT22;59091;47.446;19.148;2022-07-10T04:39:10;20.57;57.94
71304;DHT22;59091;47.446;19.148;2022-07-10T04:41:36;20.70;57.67
71304;DHT22;59091;47.446;19.148;2022-07-10T04:44:02;20.57;57.85
71304;DHT22;59091;47.446;19.148;2022-07-10T04:46:27;20.98;56.28
71304;DHT22;59091;47.446;19.148;2022-07-10T04:48:52;21.49;54.79
71304;DHT22;59091;47.446;19.148;2022-07-10T04:51:18;21.80;54.04
71304;DHT22;59091;47.446;19.148;2022-07-10T04:53:44;21.94;53.57
71304;DHT22;59091;47.446;19.148;2022-07-10T04:56:09;21.90;53.95
71304;DHT22;59091;47.446;19.148;2022-07-10T04:58:34;21.78;54.44
71304;DHT22;59091;47.446;19.148;2022-07-10T05:01:00;21.52;54.71
71304;DHT22;59091;47.446;19.148;2022-07-10T05:03:28;21.56;54.63
71304;DHT22;59091;47.446;19.148;2022-07-10T05:05:53;21.76;54.36
71304;DHT22;59091;47.446;19.148;2022-07-10T05:08:18;21.58;54.64
71304;DHT22;59091;47.446;19.148;2022-07-10T05:10:44;21.75;54.38
71304;DHT22;59091;47.446;19.148;2022-07-10T05:13:10;21.69;54.92
71304;DHT22;59091;47.446;19.148;2022-07-10T05:15:36;21.83;54.45
71304;DHT22;59091;47.446;19.148;2022-07-10T05:18:02;22.13;53.46
71304;DHT22;59091;47.446;19.148;2022-07-10T05:20:27;21.92;53.90
71304;DHT22;59091;47.446;19.148;2022-07-10T05:22:53;21.82;54.17
71304;DHT22;59091;47.446;19.148;2022-07-10T05:25:18;22.02;53.98
71304;DHT22;59091;47.446;19.148;2022-07-10T05:27:44;22.21;53.32
71304;DHT22;59091;47.446;19.148;2022-07-10T05:30:09;22.23;52.91
71304;DHT22;59091;47.446;19.148;2022-07-10T05:32:44;22.43;52.12
71304;DHT22;59091;47.446;19.148;2022-07-10T05:35:11;22.55;52.35
71304;DHT22;59091;47.446;19.148;2022-07-10T05:37:37;22.72;51.75
71304;DHT22;59091;47.446;19.148;2022-07-10T05:40:03;22.76;51.38
71304;DHT22;59091;47.446;19.148;2022-07-10T05:42:28;22.52;51.40
71304;DHT22;59091;47.446;19.148;2022-07-10T05:44:54;22.72;51.02
71304;DHT22;59091;47.446;19.148;2022-07-10T05:47:19;22.82;50.44
71304;DHT22;59091;47.446;19.148;2022-07-10T05:49:44;22.65;50.12
71304;DHT22;59091;47.446;19.148;2022-07-10T05:52:10;22.91;49.65
71304;DHT22;59091;47.446;19.148;2022-07-10T05:54:35;22.74;49.82
71304;DHT22;59091;47.446;19.148;2022-07-10T05:57:01;22.58;49.92
71304;DHT22;59091;47.446;19.148;2022-07-10T05:59:26;22.50;50.27
71304;DHT22;59091;47.446;19.148;2022-07-10T06:01:52;22.75;49.95
71304;DHT22;59091;47.446;19.148;2022-07-10T06:04:17;22.69;50.14
71304;DHT22;59091;47.446;19.148;2022-07-10T06:06:43;22.85;50.54
71304;DHT22;59091;47.446;19.148;2022-07-10T06:09:08;22.52;50.93
71304;DHT22;59091;47.446;19.148;2022-07-10T06:11:33;23.09;49.88
71304;DHT22;59091;47.446;19.148;2022-07-10T06:13:59;23.20;48.19
71304;DHT22;59091;47.446;19.148;2022-07-10T06:16:25;23.13;48.79
71304;DHT22;59091;47.446;19.148;2022-07-10T06:18:50;22.91;49.08
71304;DHT22;59091;47.446;19.148;2022-07-10T06:21:16;22.99;48.78
71304;DHT22;59091;47.446;19.148;2022-07-10T06:23:46;23.11;48.74
71304;DHT22;59091;47.446;19.148;2022-07-10T06:26:12;23.24;48.46
71304;DHT22;59091;47.446;19.148;2022-07-10T06:28:37;23.24;48.30
71304;DHT22;59091;47.446;19.148;2022-07-10T06:31:04;23.36;48.06
71304;DHT22;59091;47.446;19.148;2022-07-10T06:33:31;23.36;47.90
71304;DHT22;59091;47.446;19.148;2022-07-10T06:35:57;23.57;47.89
71304;DHT22;59091;47.446;19.148;2022-07-10T06:38:23;23.27;47.74
71304;DHT22;59091;47.446;19.148;2022-07-10T06:40:49;23.53;46.94
71304;DHT22;59091;47.446;19.148;2022-07-10T06:43:15;23.84;45.83
71304;DHT22;59091;47.446;19.148;2022-07-10T06:45:40;23.81;46.35
71304;DHT22;59091;47.446;19.148;2022-07-10T06:48:07;24.00;46.02
71304;DHT22;59091;47.446;19.148;2022-07-10T06:50:32;24.18;45.63
71304;DHT22;59091;47.446;19.148;2022-07-10T06:53:00;24.15;45.70
71304;DHT22;59091;47.446;19.148;2022-07-10T06:55:26;24.68;44.96
71304;DHT22;59091;47.446;19.148;2022-07-10T06:57:52;24.99;44.21
71304;DHT22;59091;47.446;19.148;2022-07-10T07:00:17;24.85;43.90
71304;DHT22;59091;47.446;19.148;2022-07-10T07:02:43;24.96;44.09
71304;DHT22;59091;47.446;19.148;2022-07-10T07:05:09;25.14;43.72
71304;DHT22;59091;47.446;19.148;2022-07-10T07:07:34;25.53;42.36
71304;DHT22;59091;47.446;19.148;2022-07-10T07:10:01;25.78;40.96
71304;DHT22;59091;47.446;19.148;2022-07-10T07:12:26;25.89;41.24
71304;DHT22;59091;47.446;19.148;2022-07-10T07:14:52;25.98;41.02
71304;DHT22;59091;47.446;19.148;2022-07-10T07:17:17;26.28;39.49
71304;DHT22;59091;47.446;19.148;2022-07-10T07:19:51;26.28;39.10
71304;DHT22;59091;47.446;19.148;2022-07-10T07:22:35;26.21;37.82
71304;DHT22;59091;47.446;19.148;2022-07-10T07:25:19;26.86;39.00
71304;DHT22;59091;47.446;19.148;2022-07-10T07:27:45;27.06;37.21
71304;DHT22;59091;47.446;19.148;2022-07-10T07:30:12;27.12;36.28
71304;DHT22;59091;47.446;19.148;2022-07-10T07:32:40;27.35;36.41
71304;DHT22;59091;47.446;19.148;2022-07-10T07:35:08;27.44;36.07
71304;DHT22;59091;47.446;19.148;2022-07-10T07:37:35;27.59;35.63
71304;DHT22;59091;47.446;19.148;2022-07-10T07:40:01;27.48;35.48
71304;DHT22;59091;47.446;19.148;2022-07-10T07:42:27;27.47;35.87
71304;DHT22;59091;47.446;19.148;2022-07-10T07:44:52;27.73;35.83
71304;DHT22;59091;47.446;19.148;2022-07-10T07:47:17;27.73;34.79
71304;DHT22;59091;47.446;19.148;2022-07-10T07:49:43;28.21;33.88
71304;DHT22;59091;47.446;19.148;2022-07-10T07:52:09;28.44;33.79
71304;DHT22;59091;47.446;19.148;2022-07-10T07:54:35;28.60;33.30
71304;DHT22;59091;47.446;19.148;2022-07-10T07:57:00;27.85;33.51
71304;DHT22;59091;47.446;19.148;2022-07-10T07:59:25;27.89;33.83
71304;DHT22;59091;47.446;19.148;2022-07-10T08:01:51;28.20;33.48
71304;DHT22;59091;47.446;19.148;2022-07-10T08:04:16;28.35;32.76
71304;DHT22;59091;47.446;19.148;2022-07-10T08:06:41;28.74;32.41
71304;DHT22;59091;47.446;19.148;2022-07-10T08:09:07;29.04;31.75
71304;DHT22;59091;47.446;19.148;2022-07-10T08:11:32;29.16;30.93
71304;DHT22;59091;47.446;19.148;2022-07-10T08:13:58;28.88;30.07
71304;DHT22;59091;47.446;19.148;2022-07-10T08:16:23;28.86;32.18
71304;DHT22;59091;47.446;19.148;2022-07-10T08:18:49;28.79;32.16
71304;DHT22;59091;47.446;19.148;2022-07-10T08:21:15;28.90;32.05
71304;DHT22;59091;47.446;19.148;2022-07-10T08:23:41;28.87;31.68
71304;DHT22;59091;47.446;19.148;2022-07-10T08:26:06;29.36;30.95
71304;DHT22;59091;47.446;19.148;2022-07-10T08:28:31;28.87;31.75
71304;DHT22;59091;47.446;19.148;2022-07-10T08:30:57;29.38;31.39
71304;DHT22;59091;47.446;19.148;2022-07-10T08:33:22;29.50;31.31
71304;DHT22;59091;47.446;19.148;2022-07-10T08:35:47;28.82;31.60
71304;DHT22;59091;47.446;19.148;2022-07-10T08:38:13;28.92;31.32
71304;DHT22;59091;47.446;19.148;2022-07-10T08:40:39;29.48;30.42
71304;DHT22;59091;47.446;19.148;2022-07-10T08:43:07;29.60;30.18
71304;DHT22;59091;47.446;19.148;2022-07-10T08:45:33;30.11;31.11
71304;DHT22;59091;47.446;19.148;2022-07-10T08:48:02;30.51;29.03
71304;DHT22;59091;47.446;19.148;2022-07-10T08:50:32;30.62;29.00
71304;DHT22;59091;47.446;19.148;2022-07-10T08:53:17;30.30;28.30
71304;DHT22;59091;47.446;19.148;2022-07-10T08:55:46;30.75;27.71
71304;DHT22;59091;47.446;19.148;2022-07-10T08:58:12;29.63;27.74
71304;DHT22;59091;47.446;19.148;2022-07-10T09:00:38;29.11;29.44
71304;DHT22;59091;47.446;19.148;2022-07-10T09:03:03;28.87;31.04
71304;DHT22;59091;47.446;19.148;2022-07-10T09:05:29;27.99;33.52
71304;DHT22;59091;47.446;19.148;2022-07-10T09:07:54;27.37;33.87
71304;DHT22;59091;47.446;19.148;2022-07-10T09:10:23;26.94;34.39
71304;DHT22;59091;47.446;19.148;2022-07-10T09:12:59;27.86;32.72
71304;DHT22;59091;47.446;19.148;2022-07-10T09:15:28;28.21;31.82
71304;DHT22;59091;47.446;19.148;2022-07-10T09:18:02;27.75;31.92
71304;DHT22;59091;47.446;19.148;2022-07-10T09:20:33;28.26;30.88
71304;DHT22;59091;47.446;19.148;2022-07-10T09:25:41;28.41;30.97
71304;DHT22;59091;47.446;19.148;2022-07-10T09:28:06;28.47;31.76
71304;DHT22;59091;47.446;19.148;2022-07-10T09:30:37;28.33;30.70
71304;DHT22;59091;47.446;19.148;2022-07-10T09:35:58;27.31;34.20
71304;DHT22;59091;47.446;19.148;2022-07-10T09:41:43;26.73;34.34
71304;DHT22;59091;47.446;19.148;2022-07-10T09:44:08;26.55;34.72
71304;DHT22;59091;47.446;19.148;2022-07-10T09:46:37;26.63;33.48
71304;DHT22;59091;47.446;19.148;2022-07-10T09:49:11;26.72;33.30
71304;DHT22;59091;47.446;19.148;2022-07-10T09:51:42;27.06;33.90
71304;DHT22;59091;47.446;19.148;2022-07-10T09:54:09;26.98;33.76
71304;DHT22;59091;47.446;19.148;2022-07-10T09:56:48;26.76;34.39
71304;DHT22;59091;47.446;19.148;2022-07-10T09:59:18;26.73;33.32
71304;DHT22;59091;47.446;19.148;2022-07-10T10:01:45;26.60;33.20
71304;DHT22;59091;47.446;19.148;2022-07-10T10:04:12;26.82;33.57
71304;DHT22;59091;47.446;19.148;2022-07-10T10:06:39;27.03;33.54
71304;DHT22;59091;47.446;19.148;2022-07-10T10:09:26;27.12;33.63
71304;DHT22;59091;47.446;19.148;2022-07-10T10:11:57;27.12;33.84
71304;DHT22;59091;47.446;19.148;2022-07-10T10:14:25;26.97;32.15
71304;DHT22;59091;47.446;19.148;2022-07-10T10:16:54;27.03;33.23
71304;DHT22;59091;47.446;19.148;2022-07-10T10:19:23;27.12;32.74
71304;DHT22;59091;47.446;19.148;2022-07-10T10:22:21;26.98;32.57
71304;DHT22;59091;47.446;19.148;2022-07-10T10:24:46;26.45;34.23
71304;DHT22;59091;47.446;19.148;2022-07-10T10:27:14;26.50;34.07
71304;DHT22;59091;47.446;19.148;2022-07-10T10:29:40;26.66;33.45
71304;DHT22;59091;47.446;19.148;2022-07-10T10:32:07;26.91;33.27
71304;DHT22;59091;47.446;19.148;2022-07-10T10:34:47;26.67;33.29
71304;DHT22;59091;47.446;19.148;2022-07-10T10:37:32;26.33;33.67
71304;DHT22;59091;47.446;19.148;2022-07-10T10:39:58;26.56;33.96
71304;DHT22;59091;47.446;19.148;2022-07-10T10:50:52;25.92;34.06
71304;DHT22;59091;47.446;19.148;2022-07-10T10:53:25;26.06;34.89
71304;DHT22;59091;47.446;19.148;2022-07-10T10:58:26;26.19;33.38
71304;DHT22;59091;47.446;19.148;2022-07-10T11:00:52;25.89;32.19
71304;DHT22;59091;47.446;19.148;2022-07-10T11:03:27;26.04;32.98
71304;DHT22;59091;47.446;19.148;2022-07-10T11:05:52;26.19;33.28
71304;DHT22;59091;47.446;19.148;2022-07-10T11:08:40;26.06;32.28
71304;DHT22;59091;47.446;19.148;2022-07-10T11:13:59;26.09;31.05
71304;DHT22;59091;47.446;19.148;2022-07-10T11:16:25;26.11;31.59
71304;DHT22;59091;47.446;19.148;2022-07-10T11:18:54;26.06;31.61
71304;DHT22;59091;47.446;19.148;2022-07-10T11:21:24;26.15;31.42
71304;DHT22;59091;47.446;19.148;2022-07-10T11:24:06;26.05;30.66
71304;DHT22;59091;47.446;19.148;2022-07-10T11:26:52;26.40;30.36
71304;DHT22;59091;47.446;19.148;2022-07-10T11:29:20;26.39;30.92
71304;DHT22;59091;47.446;19.148;2022-07-10T11:31:54;26.61;31.75
71304;DHT22;59091;47.446;19.148;2022-07-10T11:34:22;26.69;32.26
71304;DHT22;59091;47.446;19.148;2022-07-10T11:36:48;26.45;31.77
71304;DHT22;59091;47.446;19.148;2022-07-10T11:39:13;26.46;32.11
71304;DHT22;59091;47.446;19.148;2022-07-10T11:41:43;26.22;31.37
71304;DHT22;59091;47.446;19.148;2022-07-10T11:44:14;26.53;30.60
71304;DHT22;59091;47.446;19.148;2022-07-10T11:46:41;26.40;30.56
71304;DHT22;59091;47.446;19.148;2022-07-10T11:49:09;26.45;30.58
71304;DHT22;59091;47.446;19.148;2022-07-10T11:51:37;26.39;31.83
71304;DHT22;59091;47.446;19.148;2022-07-10T11:56:37;26.39;31.82
71304;DHT22;59091;47.446;19.148;2022-07-10T12:01:35;25.88;33.27
71304;DHT22;59091;47.446;19.148;2022-07-10T12:04:06;25.71;33.07
71304;DHT22;59091;47.446;19.148;2022-07-10T12:06:35;25.33;32.97
71304;DHT22;59091;47.446;19.148;2022-07-10T12:09:02;25.31;33.53
71304;DHT22;59091;47.446;19.148;2022-07-10T12:11:28;25.38;33.04
71304;DHT22;59091;47.446;19.148;2022-07-10T12:14:17;25.68;32.80
71304;DHT22;59091;47.446;19.148;2022-07-10T12:16:48;25.81;33.00
71304;DHT22;59091;47.446;19.148;2022-07-10T12:19:15;25.53;32.62
71304;DHT22;59091;47.446;19.148;2022-07-10T12:21:42;25.54;32.94
71304;DHT22;59091;47.446;19.148;2022-07-10T12:24:09;25.47;33.01
71304;DHT22;59091;47.446;19.148;2022-07-10T12:26:39;25.54;33.04
71304;DHT22;59091;47.446;19.148;2022-07-10T12:29:05;25.64;32.96
71304;DHT22;59091;47.446;19.148;2022-07-10T12:31:32;25.82;32.88
71304;DHT22;59091;47.446;19.148;2022-07-10T12:34:03;25.81;32.55
71304;DHT22;59091;47.446;19.148;2022-07-10T12:39:07;25.81;31.55
71304;DHT22;59091;47.446;19.148;2022-07-10T12:41:33;25.85;32.04
71304;DHT22;59091;47.446;19.148;2022-07-10T12:43:58;25.80;32.15
71304;DHT22;59091;47.446;19.148;2022-07-10T12:46:24;26.01;31.73
71304;DHT22;59091;47.446;19.148;2022-07-10T12:49:09;26.09;31.34
71304;DHT22;59091;47.446;19.148;2022-07-10T12:51:45;26.08;31.22
71304;DHT22;59091;47.446;19.148;2022-07-10T12:54:36;25.98;31.96
71304;DHT22;59091;47.446;19.148;2022-07-10T12:57:03;26.02;32.31
71304;DHT22;59091;47.446;19.148;2022-07-10T12:59:32;25.85;30.79
71304;DHT22;59091;47.446;19.148;2022-07-10T13:01:58;25.68;30.91
71304;DHT22;59091;47.446;19.148;2022-07-10T13:04:25;25.71;31.54
71304;DHT22;59091;47.446;19.148;2022-07-10T13:06:52;25.43;31.28
71304;DHT22;59091;47.446;19.148;2022-07-10T13:09:22;25.26;30.41
71304;DHT22;59091;47.446;19.148;2022-07-10T13:11:49;25.23;30.79
71304;DHT22;59091;47.446;19.148;2022-07-10T13:14:15;25.30;31.17
71304;DHT22;59091;47.446;19.148;2022-07-10T13:16:41;25.43;31.13
71304;DHT22;59091;47.446;19.148;2022-07-10T13:19:06;25.20;30.90
71304;DHT22;59091;47.446;19.148;2022-07-10T13:21:31;25.45;31.34
71304;DHT22;59091;47.446;19.148;2022-07-10T13:23:57;25.53;31.09
71304;DHT22;59091;47.446;19.148;2022-07-10T13:26:22;25.68;31.64
71304;DHT22;59091;47.446;19.148;2022-07-10T13:28:48;25.71;31.65
71304;DHT22;59091;47.446;19.148;2022-07-10T13:31:13;25.65;32.31
71304;DHT22;59091;47.446;19.148;2022-07-10T13:33:39;25.57;31.69
71304;DHT22;59091;47.446;19.148;2022-07-10T13:36:04;25.71;30.18
71304;DHT22;59091;47.446;19.148;2022-07-10T13:38:30;25.75;30.28
71304;DHT22;59091;47.446;19.148;2022-07-10T13:40:57;25.75;30.60
71304;DHT22;59091;47.446;19.148;2022-07-10T13:43:22;25.78;31.56
71304;DHT22;59091;47.446;19.148;2022-07-10T13:45:56;25.58;31.78
71304;DHT22;59091;47.446;19.148;2022-07-10T13:48:21;25.50;31.64
71304;DHT22;59091;47.446;19.148;2022-07-10T13:50:47;25.40;31.99
71304;DHT22;59091;47.446;19.148;2022-07-10T13:53:13;25.26;31.28
71304;DHT22;59091;47.446;19.148;2022-07-10T13:55:38;25.24;30.52
71304;DHT22;59091;47.446;19.148;2022-07-10T13:58:04;25.36;30.13
71304;DHT22;59091;47.446;19.148;2022-07-10T14:00:30;25.43;30.58
71304;DHT22;59091;47.446;19.148;2022-07-10T14:02:55;25.45;29.83
71304;DHT22;59091;47.446;19.148;2022-07-10T14:05:23;25.41;30.21
71304;DHT22;59091;47.446;19.148;2022-07-10T14:07:49;25.53;29.96
71304;DHT22;59091;47.446;19.148;2022-07-10T14:10:14;25.48;29.20
71304;DHT22;59091;47.446;19.148;2022-07-10T14:12:41;25.48;29.86
71304;DHT22;59091;47.446;19.148;2022-07-10T14:15:07;25.38;30.04
71304;DHT22;59091;47.446;19.148;2022-07-10T14:17:32;25.45;30.96
71304;DHT22;59091;47.446;19.148;2022-07-10T14:19:58;25.53;30.32
71304;DHT22;59091;47.446;19.148;2022-07-10T14:22:23;25.45;30.03
71304;DHT22;59091;47.446;19.148;2022-07-10T14:24:50;25.31;30.63
71304;DHT22;59091;47.446;19.148;2022-07-10T14:27:17;25.54;29.65
71304;DHT22;59091;47.446;19.148;2022-07-10T14:29:42;25.47;28.17
71304;DHT22;59091;47.446;19.148;2022-07-10T14:32:08;25.38;27.85
71304;DHT22;59091;47.446;19.148;2022-07-10T14:34:33;25.28;28.49
71304;DHT22;59091;47.446;19.148;2022-07-10T14:36:58;25.37;28.20
71304;DHT22;59091;47.446;19.148;2022-07-10T14:39:24;25.55;28.28
71304;DHT22;59091;47.446;19.148;2022-07-10T14:41:49;25.75;27.90
71304;DHT22;59091;47.446;19.148;2022-07-10T14:44:15;25.92;28.43
71304;DHT22;59091;47.446;19.148;2022-07-10T14:46:40;25.84;28.07
71304;DHT22;59091;47.446;19.148;2022-07-10T14:49:05;25.96;27.53
71304;DHT22;59091;47.446;19.148;2022-07-10T14:51:31;25.98;27.76
71304;DHT22;59091;47.446;19.148;2022-07-10T14:53:57;26.15;27.53
71304;DHT22;59091;47.446;19.148;2022-07-10T14:56:22;26.01;27.36
71304;DHT22;59091;47.446;19.148;2022-07-10T14:58:49;26.14;27.87
71304;DHT22;59091;47.446;19.148;2022-07-10T15:01:15;25.91;26.70
71304;DHT22;59091;47.446;19.148;2022-07-10T15:03:41;25.84;27.09
71304;DHT22;59091;47.446;19.148;2022-07-10T15:06:06;25.81;26.59
71304;DHT22;59091;47.446;19.148;2022-07-10T15:08:32;25.50;27.32
71304;DHT22;59091;47.446;19.148;2022-07-10T15:10:57;25.60;27.86
71304;DHT22;59091;47.446;19.148;2022-07-10T15:13:28;25.43;27.29
71304;DHT22;59091;47.446;19.148;2022-07-10T15:15:54;25.45;28.45
71304;DHT22;59091;47.446;19.148;2022-07-10T15:18:19;25.40;28.22
71304;DHT22;59091;47.446;19.148;2022-07-10T15:20:46;25.19;28.04
71304;DHT22;59091;47.446;19.148;2022-07-10T15:23:12;25.20;27.81
71304;DHT22;59091;47.446;19.148;2022-07-10T15:25:38;25.12;27.76
71304;DHT22;59091;47.446;19.148;2022-07-10T15:28:05;24.99;27.92
71304;DHT22;59091;47.446;19.148;2022-07-10T15:30:33;25.13;27.27
71304;DHT22;59091;47.446;19.148;2022-07-10T15:32:59;25.00;27.18
71304;DHT22;59091;47.446;19.148;2022-07-10T15:35:24;25.00;26.54
71304;DHT22;59091;47.446;19.148;2022-07-10T15:37:50;25.02;27.15
71304;DHT22;59091;47.446;19.148;2022-07-10T15:40:15;24.96;27.03
71304;DHT22;59091;47.446;19.148;2022-07-10T15:42:41;24.89;27.87
71304;DHT22;59091;47.446;19.148;2022-07-10T15:45:07;24.59;27.59